LRM weather

Casa De Campo International Airport
La Romana, La Romana Province, Dominican Republic

Public forecast

Using degrees Celsius for public forecast. Weather courtesy of forecast.io.

METAR (pilot weather report)

Retrieved 2019/04/22 20:00 UTC (8 minutes ago):

MDLR 222000Z 07006KT 9999 BKN020 29/23 Q1012

TAF (pilot weather forecast)

Forecast is more than 12 hours old.

Retrieved 2019/04/21 06:36 UTC (2 days ago):

TAF MDLR 210400Z 2106/2206 00000KT 9999 SCT018 PROB30 2106/2112 7000 -RA BKN016 BECMG 2114/2116 13012KT